createdAt,value
2018-03-07T00:00:01.152Z,48.57
2018-03-07T00:02:28.541Z,49.93
2018-03-07T00:04:55.955Z,51.87
2018-03-07T00:07:23.371Z,51.37
2018-03-07T00:09:50.872Z,50.50
2018-03-07T00:12:18.255Z,46.47
2018-03-07T00:14:45.786Z,47.63
2018-03-07T00:17:13.247Z,51.97
2018-03-07T00:19:40.685Z,51.07
2018-03-07T00:22:08.075Z,52.23
2018-03-07T00:24:35.506Z,50.27
2018-03-07T00:27:02.903Z,49.90
2018-03-07T00:29:30.359Z,49.50
2018-03-07T00:31:57.770Z,49.57
2018-03-07T00:34:25.171Z,50.93
2018-03-07T00:36:52.554Z,51.67
2018-03-07T00:39:20.004Z,52.13
2018-03-07T00:41:47.435Z,51.70
2018-03-07T00:44:14.891Z,50.10
2018-03-07T00:46:42.287Z,50.50
2018-03-07T00:49:09.695Z,49.50
2018-03-07T00:51:37.086Z,52.33
2018-03-07T00:54:04.503Z,53.23
2018-03-07T00:56:31.890Z,51.47
2018-03-07T00:58:59.317Z,50.47
2018-03-07T01:01:26.740Z,50.17
2018-03-07T01:03:54.200Z,52.33
2018-03-07T01:06:21.590Z,49.63
2018-03-07T01:08:49.085Z,51.43
2018-03-07T01:11:16.494Z,51.40
2018-03-07T01:13:43.896Z,51.13
2018-03-07T01:16:11.398Z,51.53
2018-03-07T01:18:38.828Z,55.13
2018-03-07T01:21:06.220Z,51.93
2018-03-07T01:23:33.657Z,53.20
2018-03-07T01:26:01.126Z,53.87
2018-03-07T01:28:28.548Z,52.77
2018-03-07T01:30:55.951Z,54.63
2018-03-07T01:33:23.350Z,53.50
2018-03-07T01:35:50.739Z,53.27
2018-03-07T01:38:18.138Z,52.40
2018-03-07T01:40:45.530Z,53.07
2018-03-07T01:43:12.961Z,53.13
2018-03-07T01:45:40.362Z,53.67
2018-03-07T01:48:07.787Z,53.67
2018-03-07T01:50:35.267Z,53.17
2018-03-07T01:53:02.722Z,54.27
2018-03-07T01:55:30.919Z,56.13
2018-03-07T01:57:58.314Z,52.77
2018-03-07T02:00:25.704Z,54.60
2018-03-07T02:02:53.097Z,52.20
2018-03-07T02:05:20.488Z,50.97
2018-03-07T02:07:47.911Z,49.30
2018-03-07T02:12:48.183Z,52.10
2018-03-07T02:15:15.669Z,52.07
2018-03-07T02:17:43.069Z,51.23
2018-03-07T02:20:10.454Z,49.77
2018-03-07T02:22:38.306Z,51.93
2018-03-07T02:25:05.759Z,51.23
2018-03-07T02:27:33.150Z,53.17
2018-03-07T02:30:00.660Z,50.13
2018-03-07T02:32:28.042Z,53.47
2018-03-07T02:34:55.467Z,52.53
2018-03-07T02:37:22.901Z,52.67
2018-03-07T02:39:50.430Z,51.37
2018-03-07T02:42:17.815Z,50.57
2018-03-07T02:44:45.214Z,51.43
2018-03-07T02:47:12.616Z,52.73
2018-03-07T02:49:40.038Z,51.00
2018-03-07T02:52:07.422Z,50.67
2018-03-07T02:54:34.826Z,50.20
2018-03-07T02:57:02.218Z,52.10
2018-03-07T02:59:29.723Z,51.50
2018-03-07T03:01:57.178Z,51.13
2018-03-07T03:04:24.576Z,48.97
2018-03-07T03:06:51.987Z,54.23
2018-03-07T03:09:19.385Z,52.33
2018-03-07T03:11:46.775Z,51.23
2018-03-07T03:14:14.171Z,51.70
2018-03-07T03:16:41.567Z,55.03
2018-03-07T03:19:08.974Z,52.47
2018-03-07T03:21:36.425Z,52.43
2018-03-07T03:24:03.870Z,54.53
2018-03-07T03:26:31.262Z,51.47
2018-03-07T03:28:58.674Z,52.90
2018-03-07T03:31:26.083Z,49.70
2018-03-07T03:33:53.477Z,52.30
2018-03-07T03:36:20.951Z,50.80
2018-03-07T03:38:48.358Z,49.43
2018-03-07T03:41:15.854Z,49.43
2018-03-07T03:43:43.254Z,49.27
2018-03-07T03:46:10.644Z,53.77
2018-03-07T03:48:38.042Z,55.07
2018-03-07T03:51:05.486Z,53.20
2018-03-07T03:53:32.934Z,52.50
2018-03-07T03:56:00.401Z,53.10
2018-03-07T03:58:27.794Z,51.57
2018-03-07T04:00:55.199Z,51.67
2018-03-07T04:03:22.601Z,54.83
2018-03-07T04:05:49.986Z,53.77
2018-03-07T04:08:17.470Z,54.20
2018-03-07T04:10:44.869Z,53.20
2018-03-07T04:13:12.275Z,52.00
2018-03-07T04:15:39.669Z,52.00
2018-03-07T04:18:07.090Z,51.77
2018-03-07T04:20:34.553Z,54.10
2018-03-07T04:23:01.960Z,52.97
2018-03-07T04:25:29.379Z,51.60
2018-03-07T04:27:56.727Z,56.53
2018-03-07T04:30:24.138Z,52.03
2018-03-07T04:32:51.634Z,52.50
2018-03-07T04:35:19.090Z,54.10
2018-03-07T04:37:46.479Z,50.73
2018-03-07T04:40:13.870Z,51.57
2018-03-07T04:42:41.271Z,49.03
2018-03-07T04:45:08.675Z,50.30
2018-03-07T04:47:36.071Z,49.43
2018-03-07T04:50:03.472Z,50.67
2018-03-07T04:52:30.859Z,54.30
2018-03-07T04:54:58.260Z,52.00
2018-03-07T04:57:25.763Z,49.80
2018-03-07T04:59:53.163Z,51.10
2018-03-07T05:02:20.603Z,51.73
2018-03-07T05:04:47.995Z,51.73
2018-03-07T05:07:15.490Z,51.97
2018-03-07T05:09:42.884Z,48.93
2018-03-07T05:12:10.299Z,49.10
2018-03-07T05:14:37.699Z,50.20
2018-03-07T05:17:05.095Z,49.73
2018-03-07T05:19:32.529Z,51.83
2018-03-07T05:21:59.915Z,49.97
2018-03-07T05:24:27.323Z,50.47
2018-03-07T05:26:54.734Z,49.20
2018-03-07T05:29:22.130Z,49.00
2018-03-07T05:31:49.522Z,48.73
2018-03-07T05:34:16.953Z,50.30
2018-03-07T05:36:44.337Z,51.73
2018-03-07T05:39:11.741Z,49.57
2018-03-07T05:41:39.240Z,51.53
2018-03-07T05:44:06.679Z,49.57
2018-03-07T05:46:34.066Z,47.40
2018-03-07T05:49:01.470Z,51.10
2018-03-07T05:51:28.857Z,51.00
2018-03-07T05:53:56.260Z,50.20
2018-03-07T05:56:23.754Z,54.30
2018-03-07T05:58:51.167Z,51.97
2018-03-07T06:01:18.586Z,50.83
2018-03-07T06:03:45.986Z,48.23
2018-03-07T06:06:13.381Z,49.83
2018-03-07T06:08:40.826Z,48.17
2018-03-07T06:11:08.307Z,48.07
2018-03-07T06:13:35.723Z,50.23
2018-03-07T06:16:03.118Z,49.60
2018-03-07T06:18:30.546Z,50.10
2018-03-07T06:20:57.943Z,50.60
2018-03-07T06:23:25.326Z,49.47
2018-03-07T06:25:52.814Z,50.17
2018-03-07T06:28:20.217Z,49.77
2018-03-07T06:30:47.607Z,50.40
2018-03-07T06:33:15.010Z,51.37
2018-03-07T06:35:42.435Z,52.20
2018-03-07T06:38:09.822Z,52.00
2018-03-07T06:40:37.210Z,50.77
2018-03-07T06:43:04.602Z,51.63
2018-03-07T06:45:32.028Z,49.70
2018-03-07T06:47:59.427Z,53.10
2018-03-07T06:50:26.863Z,49.60
2018-03-07T06:52:54.273Z,51.80
2018-03-07T06:55:21.783Z,51.83
2018-03-07T06:57:49.176Z,51.70
2018-03-07T07:00:16.618Z,52.53
2018-03-07T07:02:43.990Z,51.30
2018-03-07T07:05:11.383Z,52.10
2018-03-07T07:07:38.783Z,51.00
2018-03-07T07:10:06.174Z,52.23
2018-03-07T07:12:33.571Z,51.70
2018-03-07T07:15:01.014Z,51.87
2018-03-07T07:17:28.474Z,49.73
2018-03-07T07:19:55.930Z,50.33
2018-03-07T07:22:23.314Z,52.43
2018-03-07T07:24:50.741Z,51.10
2018-03-07T07:27:18.131Z,50.43
2018-03-07T07:29:45.555Z,49.23
2018-03-07T07:34:40.198Z,51.07
2018-03-07T07:37:07.589Z,50.97
2018-03-07T07:39:34.983Z,52.20
2018-03-07T07:42:02.386Z,52.00
2018-03-07T07:44:29.780Z,55.10
2018-03-07T07:46:57.229Z,51.20
2018-03-07T07:49:24.632Z,52.03
2018-03-07T07:51:52.024Z,53.40
2018-03-07T07:54:19.422Z,51.60
2018-03-07T07:56:46.807Z,50.93
2018-03-07T07:59:14.199Z,51.37
2018-03-07T08:01:41.596Z,50.57
2018-03-07T08:04:09.010Z,52.57
2018-03-07T08:06:36.470Z,51.43
2018-03-07T08:09:03.858Z,55.87
2018-03-07T08:11:31.254Z,52.00
2018-03-07T08:13:58.655Z,50.27
2018-03-07T08:16:26.094Z,53.47
2018-03-07T08:18:53.478Z,50.47
2018-03-07T08:21:21.436Z,50.70
2018-03-07T08:23:48.825Z,53.50
2018-03-07T08:26:16.218Z,54.07
2018-03-07T08:28:43.611Z,50.17
2018-03-07T08:31:11.050Z,50.75
2018-03-07T08:33:38.494Z,53.40
2018-03-07T08:36:05.905Z,51.67
2018-03-07T08:38:33.289Z,51.77
2018-03-07T08:41:00.688Z,53.40
2018-03-07T08:43:28.080Z,52.00
2018-03-07T08:45:55.490Z,56.13
2018-03-07T08:48:22.891Z,51.03
2018-03-07T08:50:50.387Z,52.20
2018-03-07T08:53:17.782Z,51.77
2018-03-07T08:55:45.186Z,53.30
2018-03-07T08:58:12.573Z,50.53
2018-03-07T09:00:40.008Z,50.67
2018-03-07T09:03:07.460Z,52.57
2018-03-07T09:05:34.850Z,54.83
2018-03-07T09:08:02.243Z,52.90
2018-03-07T09:10:29.642Z,53.30
2018-03-07T09:12:57.841Z,56.47
2018-03-07T09:15:25.224Z,57.47
2018-03-07T09:17:52.616Z,53.70
2018-03-07T09:20:20.021Z,55.10
2018-03-07T09:22:47.407Z,56.40
2018-03-07T09:25:14.916Z,53.33
2018-03-07T09:27:42.307Z,53.53
2018-03-07T09:30:09.707Z,54.83
2018-03-07T09:32:37.103Z,52.43
2018-03-07T09:35:04.513Z,54.40
2018-03-07T09:37:31.961Z,50.67
2018-03-07T09:39:59.366Z,50.23
2018-03-07T09:42:26.811Z,52.23
2018-03-07T09:44:56.941Z,51.20
2018-03-07T09:47:24.535Z,52.40
2018-03-07T09:49:51.990Z,54.37
2018-03-07T09:52:19.390Z,53.50
2018-03-07T09:54:46.806Z,50.77
2018-03-07T09:57:14.262Z,53.67
2018-03-07T09:59:41.655Z,54.50
2018-03-07T10:02:09.068Z,53.00
2018-03-07T10:04:36.456Z,50.40
2018-03-07T10:07:03.913Z,52.90
2018-03-07T10:09:31.266Z,51.57
2018-03-07T10:11:58.658Z,50.90
2018-03-07T10:14:26.151Z,50.50
2018-03-07T10:16:55.258Z,52.97
2018-03-07T10:19:24.680Z,54.70
2018-03-07T10:21:52.178Z,53.20
2018-03-07T10:24:19.751Z,51.07
2018-03-07T10:26:47.142Z,50.67
2018-03-07T10:29:14.594Z,54.30
2018-03-07T10:31:42.038Z,56.80
2018-03-07T10:34:09.510Z,52.73
2018-03-07T10:36:36.899Z,50.27
2018-03-07T10:39:04.284Z,53.40
2018-03-07T10:41:31.794Z,53.73
2018-03-07T10:43:59.200Z,54.80
2018-03-07T10:46:26.600Z,55.20
2018-03-07T10:48:54.032Z,55.17
2018-03-07T10:51:21.478Z,54.33
2018-03-07T10:53:48.961Z,57.40
2018-03-07T10:56:16.395Z,56.83
2018-03-07T10:58:43.786Z,54.43
2018-03-07T11:01:11.259Z,58.43
2018-03-07T11:03:38.727Z,54.77
2018-03-07T11:06:06.117Z,58.17
2018-03-07T11:08:33.507Z,59.33
2018-03-07T11:11:01.691Z,57.27
2018-03-07T11:13:29.093Z,57.17
2018-03-07T11:15:56.492Z,57.37
2018-03-07T11:18:23.932Z,58.63
2018-03-07T11:20:51.280Z,59.00
2018-03-07T11:23:18.772Z,61.30
2018-03-07T11:25:46.158Z,59.27
2018-03-07T11:28:13.600Z,59.73
2018-03-07T11:30:41.039Z,66.60
2018-03-07T11:33:08.499Z,62.13
2018-03-07T11:35:35.955Z,66.80
2018-03-07T11:38:03.356Z,62.33
2018-03-07T11:40:30.746Z,69.67
2018-03-07T11:42:58.138Z,63.50
2018-03-07T11:45:25.536Z,68.70
2018-03-07T11:47:53.031Z,65.10
2018-03-07T11:50:20.498Z,64.87
2018-03-07T11:52:47.911Z,65.77
2018-03-07T11:55:15.301Z,61.90
2018-03-07T11:57:42.695Z,63.70
2018-03-07T12:00:11.096Z,63.20
2018-03-07T12:02:38.486Z,64.37
2018-03-07T12:05:05.882Z,66.00
2018-03-07T12:07:33.289Z,64.47
2018-03-07T12:10:00.670Z,65.13
2018-03-07T12:12:28.112Z,61.33
2018-03-07T12:14:55.508Z,62.50
2018-03-07T12:17:22.933Z,63.93
2018-03-07T12:19:50.318Z,66.10
2018-03-07T12:22:17.740Z,65.17
2018-03-07T12:24:45.143Z,64.27
2018-03-07T12:27:12.542Z,64.80
2018-03-07T12:29:39.998Z,62.13
2018-03-07T12:32:07.475Z,63.63
2018-03-07T12:34:34.919Z,65.90
2018-03-07T12:37:02.367Z,64.73
2018-03-07T12:39:29.826Z,67.43
2018-03-07T12:41:57.282Z,65.47
2018-03-07T12:44:25.450Z,64.37
2018-03-07T12:46:52.943Z,66.97
2018-03-07T12:49:20.358Z,65.90
2018-03-07T12:51:47.837Z,62.90
2018-03-07T12:54:15.297Z,61.40
2018-03-07T12:56:43.135Z,61.70
2018-03-07T12:59:10.526Z,61.90
2018-03-07T13:01:37.934Z,63.63
2018-03-07T13:04:05.322Z,61.90
2018-03-07T13:06:32.792Z,62.70
2018-03-07T13:09:00.162Z,61.97
2018-03-07T13:11:27.570Z,59.17
2018-03-07T13:13:55.063Z,60.20
2018-03-07T13:16:22.477Z,57.83
2018-03-07T13:18:49.954Z,62.93
2018-03-07T13:21:17.415Z,57.97
2018-03-07T13:23:44.825Z,57.37
2018-03-07T13:26:12.223Z,54.93
2018-03-07T13:28:39.658Z,54.60
2018-03-07T13:31:07.048Z,41.87
2018-03-07T13:33:34.446Z,48.03
2018-03-07T13:36:01.877Z,43.63
2018-03-07T13:38:29.324Z,48.47
2018-03-07T13:40:56.767Z,49.83
2018-03-07T13:43:24.171Z,42.60
2018-03-07T13:45:51.579Z,43.23
2018-03-07T13:48:19.046Z,46.80
2018-03-07T13:50:46.537Z,44.63
2018-03-07T13:53:13.872Z,44.03
2018-03-07T13:55:41.426Z,46.17
2018-03-07T13:58:08.869Z,46.13
2018-03-07T14:00:36.326Z,43.70
2018-03-07T14:03:03.769Z,43.13
2018-03-07T14:05:31.167Z,40.90
2018-03-07T14:07:58.559Z,41.67
2018-03-07T14:10:26.019Z,42.80
2018-03-07T14:12:53.414Z,40.57
2018-03-07T14:15:20.824Z,44.30
2018-03-07T14:17:48.284Z,44.00
2018-03-07T14:20:15.634Z,39.13
2018-03-07T14:22:43.028Z,42.73
2018-03-07T14:25:10.418Z,41.57
2018-03-07T14:30:10.578Z,36.93
2018-03-07T14:32:38.010Z,39.43
2018-03-07T14:35:05.967Z,40.60
2018-03-07T14:37:33.362Z,36.50
2018-03-07T14:40:00.747Z,38.13
2018-03-07T14:42:28.942Z,36.57
2018-03-07T14:44:56.331Z,36.90
2018-03-07T14:47:23.737Z,36.60
2018-03-07T14:49:51.129Z,38.17
2018-03-07T14:52:18.534Z,35.40
2018-03-07T14:54:45.926Z,34.73
2018-03-07T14:57:13.319Z,35.60
2018-03-07T14:59:41.251Z,37.60
2018-03-07T15:02:08.643Z,34.43
2018-03-07T15:04:36.058Z,35.33
2018-03-07T15:07:03.439Z,37.73
2018-03-07T15:09:30.844Z,36.63
2018-03-07T15:11:58.236Z,36.23
2018-03-07T15:14:25.640Z,37.23
2018-03-07T15:16:53.019Z,35.43
2018-03-07T15:19:20.415Z,37.83
2018-03-07T15:21:47.842Z,39.90
2018-03-07T15:24:15.234Z,40.40
2018-03-07T15:26:42.623Z,37.47
2018-03-07T15:29:10.015Z,38.17
2018-03-07T15:31:37.403Z,37.50
2018-03-07T15:34:04.830Z,37.70
2018-03-07T15:36:32.282Z,34.20
2018-03-07T15:38:59.671Z,38.60
2018-03-07T15:41:27.109Z,38.60
2018-03-07T15:43:54.508Z,36.60
2018-03-07T15:46:22.010Z,36.13
2018-03-07T15:48:49.398Z,33.13
2018-03-07T15:51:16.786Z,31.47
2018-03-07T15:53:44.179Z,33.07
2018-03-07T15:56:11.652Z,32.87
2018-03-07T15:58:39.042Z,33.20
2018-03-07T16:01:06.442Z,30.50
2018-03-07T16:03:33.831Z,35.27
2018-03-07T16:06:01.233Z,33.30
2018-03-07T16:08:29.134Z,35.30
2018-03-07T16:10:56.523Z,34.20
2018-03-07T16:13:23.922Z,34.83
2018-03-07T16:15:51.302Z,34.17
2018-03-07T16:18:18.734Z,35.10
2018-03-07T16:20:46.118Z,34.80
2018-03-07T16:23:13.517Z,32.20
2018-03-07T16:25:41.013Z,32.30
2018-03-07T16:28:08.483Z,31.20
2018-03-07T16:30:35.879Z,34.63
2018-03-07T16:33:03.271Z,33.20
2018-03-07T16:35:30.654Z,35.50
2018-03-07T16:37:58.082Z,36.30
2018-03-07T16:40:25.466Z,34.33
2018-03-07T16:42:52.864Z,36.00
2018-03-07T16:45:20.355Z,35.17
2018-03-07T16:47:47.830Z,34.63
2018-03-07T16:50:15.203Z,34.93
2018-03-07T16:52:42.587Z,33.20
2018-03-07T16:55:09.979Z,39.27
2018-03-07T16:57:37.384Z,37.00
2018-03-07T17:00:04.789Z,38.50
2018-03-07T17:02:32.185Z,38.80
2018-03-07T17:04:59.599Z,38.37
2018-03-07T17:07:27.082Z,40.27
2018-03-07T17:09:54.585Z,39.97
2018-03-07T17:12:21.967Z,38.40
2018-03-07T17:14:49.493Z,38.43
2018-03-07T17:17:16.864Z,40.13
2018-03-07T17:19:44.303Z,42.30
2018-03-07T17:22:11.724Z,42.13
2018-03-07T17:24:39.206Z,39.13
2018-03-07T17:27:07.264Z,42.50
2018-03-07T17:29:34.727Z,42.93
2018-03-07T17:32:02.142Z,42.23
2018-03-07T17:34:29.544Z,43.17
2018-03-07T17:36:56.947Z,42.47
2018-03-07T17:39:24.351Z,38.90
2018-03-07T17:41:51.802Z,43.10
2018-03-07T17:44:19.191Z,41.80
2018-03-07T17:46:46.571Z,41.53
2018-03-07T17:49:14.074Z,43.60
2018-03-07T17:51:41.463Z,44.53
2018-03-07T17:54:08.883Z,42.10
2018-03-07T17:56:36.279Z,43.80
2018-03-07T17:59:03.675Z,42.10
2018-03-07T18:01:31.066Z,45.70
2018-03-07T18:03:58.522Z,43.77
2018-03-07T18:06:25.978Z,43.13
2018-03-07T18:08:53.412Z,44.80
2018-03-07T18:11:20.795Z,44.03
2018-03-07T18:13:48.229Z,45.20
2018-03-07T18:16:15.662Z,44.13
2018-03-07T18:18:43.121Z,45.70
2018-03-07T18:21:10.530Z,43.20
2018-03-07T18:23:37.902Z,49.60
2018-03-07T18:26:05.295Z,51.10
2018-03-07T18:28:32.704Z,49.43
2018-03-07T18:31:00.203Z,49.40
2018-03-07T18:33:27.599Z,49.47
2018-03-07T18:35:55.010Z,48.07
2018-03-07T18:38:22.394Z,51.30
2018-03-07T18:40:49.799Z,49.07
2018-03-07T18:43:17.190Z,53.10
2018-03-07T18:45:44.598Z,55.70
2018-03-07T18:48:11.982Z,49.80
2018-03-07T18:50:39.394Z,52.77
2018-03-07T18:53:06.805Z,52.27
2018-03-07T18:55:34.202Z,54.80
2018-03-07T18:58:01.593Z,52.47
2018-03-07T19:00:28.999Z,53.80
2018-03-07T19:02:56.430Z,53.93
2018-03-07T19:05:23.821Z,52.07
2018-03-07T19:07:51.220Z,53.10
2018-03-07T19:10:18.610Z,54.10
2018-03-07T19:12:46.063Z,53.40
2018-03-07T19:15:13.467Z,55.20
2018-03-07T19:17:40.859Z,55.40
2018-03-07T19:20:08.273Z,55.03
2018-03-07T19:22:35.663Z,57.60
2018-03-07T19:25:03.078Z,52.70
2018-03-07T19:27:30.577Z,55.80
2018-03-07T19:29:58.031Z,56.60
2018-03-07T19:32:25.414Z,53.60
2018-03-07T19:34:52.819Z,56.60
2018-03-07T19:37:20.219Z,55.67
2018-03-07T19:39:47.668Z,57.17
2018-03-07T19:42:15.067Z,54.17
2018-03-07T19:44:42.511Z,57.80
2018-03-07T19:47:09.895Z,58.97
2018-03-07T19:49:37.372Z,59.07
2018-03-07T19:52:04.758Z,56.23
2018-03-07T19:54:32.159Z,57.60
2018-03-07T19:56:59.550Z,58.00
2018-03-07T19:59:26.949Z,58.93
2018-03-07T20:01:54.369Z,62.13
2018-03-07T20:04:21.777Z,56.30
2018-03-07T20:06:49.186Z,59.43
2018-03-07T20:09:16.628Z,57.40
2018-03-07T20:11:44.041Z,61.37
2018-03-07T20:14:11.549Z,59.67
2018-03-07T20:16:38.958Z,59.93
2018-03-07T20:19:06.350Z,55.30
2018-03-07T20:21:33.747Z,56.43
2018-03-07T20:24:01.154Z,58.07
2018-03-07T20:26:28.580Z,56.67
2018-03-07T20:28:55.975Z,55.00
2018-03-07T20:31:23.394Z,54.63
2018-03-07T20:33:50.903Z,57.90
2018-03-07T20:36:18.308Z,59.03
2018-03-07T20:38:45.802Z,62.57
2018-03-07T20:41:13.254Z,60.10
2018-03-07T20:43:40.647Z,58.87
2018-03-07T20:46:08.057Z,59.73
2018-03-07T20:48:35.472Z,58.73
2018-03-07T20:51:03.060Z,62.50
2018-03-07T20:53:30.458Z,63.90
2018-03-07T20:55:57.842Z,59.57
2018-03-07T20:58:25.325Z,63.20
2018-03-07T21:00:52.747Z,62.22
2018-03-07T21:03:20.141Z,59.57
2018-03-07T21:05:47.580Z,63.10
2018-03-07T21:08:14.973Z,63.03
2018-03-07T21:10:42.830Z,58.70
2018-03-07T21:13:10.313Z,63.27
2018-03-07T21:15:37.810Z,62.23
2018-03-07T21:18:05.276Z,61.13
2018-03-07T21:20:32.675Z,62.80
2018-03-07T21:23:00.076Z,63.57
2018-03-07T21:25:27.487Z,63.07
2018-03-07T21:27:54.886Z,65.50
2018-03-07T21:30:22.344Z,61.57
2018-03-07T21:32:49.715Z,59.47
2018-03-07T21:35:17.109Z,58.13
2018-03-07T21:37:44.502Z,61.13
2018-03-07T21:40:11.911Z,58.03
2018-03-07T21:42:39.374Z,59.27
2018-03-07T21:45:06.796Z,56.70
2018-03-07T21:47:34.203Z,60.47
2018-03-07T21:50:01.583Z,63.40
2018-03-07T21:52:28.971Z,57.50
2018-03-07T21:54:56.363Z,56.20
2018-03-07T21:57:23.771Z,58.03
2018-03-07T21:59:51.163Z,56.93
2018-03-07T22:02:18.578Z,61.37
2018-03-07T22:04:46.080Z,57.60
2018-03-07T22:07:13.479Z,53.97
2018-03-07T22:09:40.885Z,57.87
2018-03-07T22:12:08.359Z,58.03
2018-03-07T22:14:35.810Z,58.90
2018-03-07T22:17:03.198Z,55.03
2018-03-07T22:19:30.587Z,60.53
2018-03-07T22:21:58.058Z,57.70
2018-03-07T22:24:25.496Z,62.30
2018-03-07T22:26:52.847Z,60.90
2018-03-07T22:29:20.323Z,59.57
2018-03-07T22:31:48.413Z,59.73
2018-03-07T22:34:15.789Z,64.60
2018-03-07T22:36:43.198Z,63.77
2018-03-07T22:39:10.583Z,63.20
2018-03-07T22:41:37.973Z,58.33
2018-03-07T22:44:05.364Z,57.33
2018-03-07T22:46:32.762Z,56.80
2018-03-07T22:49:00.222Z,57.17
2018-03-07T22:51:27.623Z,55.93
2018-03-07T22:53:55.050Z,55.50
2018-03-07T22:56:22.477Z,56.87
2018-03-07T22:58:49.957Z,54.00
2018-03-07T23:01:17.366Z,54.67
2018-03-07T23:03:44.758Z,56.13
2018-03-07T23:06:12.150Z,55.40
2018-03-07T23:08:39.539Z,57.43
2018-03-07T23:11:07.047Z,58.60
2018-03-07T23:13:34.449Z,57.57
2018-03-07T23:16:01.840Z,56.60
2018-03-07T23:18:29.226Z,56.63
2018-03-07T23:20:56.646Z,57.00
2018-03-07T23:23:24.030Z,54.07
2018-03-07T23:25:51.450Z,54.00
2018-03-07T23:28:18.851Z,56.07
2018-03-07T23:30:46.256Z,58.07
2018-03-07T23:33:13.663Z,59.20
2018-03-07T23:35:41.059Z,57.40
2018-03-07T23:38:08.453Z,60.50
2018-03-07T23:40:35.846Z,56.90
2018-03-07T23:43:03.243Z,56.10
2018-03-07T23:45:30.718Z,58.50
2018-03-07T23:47:58.152Z,54.70
2018-03-07T23:50:25.619Z,56.93
2018-03-07T23:52:53.015Z,53.70
2018-03-07T23:55:20.431Z,52.63
2018-03-07T23:57:47.831Z,48.80
